メインページ
METAR-TAF:

METAR-TAF

空港 :

横田飛行場

横田, 日本

緯度: 35-45N, 経度: 139-21E, 海抜: 139m

現時点の気象観測

当レポートは57分前の10:56(UTC)に作成
西の風 6kt
気温 18°C
湿度 39%
気圧 1022 hPa
視程: 16.1km
高度23000ftの雲はほとんどない

METAR: RJTY 201056Z AUTO 27006KT 10SM FEW230 18/04 A3017 RMK AO2 SLP218 T01810039 FZRANO $

時間: 20:53 (11:53 UTC)

予報

当レポートは6時間53分前の05:00(UTC)に作成
予報は20日の 05時(UTC)から 21日の 11時(UTC)まで有効
北東の風 9kt
視程10km以上
高度5000ftの雲はほとんどない
20日の 09時(UTC)から 20日の 10時(UTC)まで徐々に
変向風 6kt
視程10km以上
高度4500ftの雲はほとんどない

TAF: RJTY 200500Z 2005/2111 04009KT 9999 FEW050 QNH3010INS BECMG 2009/2010 VRB06KT 9999 FEW045 QNH3010INS TX22/2105Z TN12/2018Z

4,000以上の空港の気象観測と天気予報(METAR報とTAF報)

利用可能な観測所は地図上に黄色い丸と赤い丸で示す。

丸の上にカーソルを重ねると観測所名を参照できる。

次にクリックすると気象観測と天気予報を参照できる。

マップの切り替え:黒色「×」印の緑ボタンをクリックして拡大、「-」印の緑ボタンをクリックして縮小、緑色の三角印をクリックして隣りの地図に切り替え


METAR-TAF: